Time;durP1;ratioP1;P1;durP2;ratioP2;P2;SDS_P1;SDS_P2;PMS_P1;PMS_P2;Temp;Humidity;BMP_temperature;BMP_pressure;BME280_temperature;BME280_humidity;BME280_pressure;Samples;Min_cycle;Max_cycle;Signal;HPM_P1;HPM_P2
2023/11/18 00:01:55;;;;;;;16.65;7.00;;;4.80;80.00;;;;;;4788758;29;20103;-91
2023/11/18 00:04:22;;;;;;;16.90;7.57;;;4.80;80.20;;;;;;4777709;29;20157;-92
2023/11/18 00:06:50;;;;;;;14.18;6.63;;;4.90;80.20;;;;;;4796006;29;20085;-92
2023/11/18 00:09:17;;;;;;;12.13;5.90;;;4.90;79.90;;;;;;4784768;29;20055;-92
2023/11/18 00:11:44;;;;;;;12.40;5.65;;;4.90;79.50;;;;;;4801696;29;20142;-92
2023/11/18 00:14:13;;;;;;;12.50;5.65;;;4.90;79.30;;;;;;4790157;29;20042;-92
2023/11/18 00:16:40;;;;;;;12.68;5.82;;;4.80;79.50;;;;;;4799282;29;20050;-92
2023/11/18 00:19:09;;;;;;;13.10;6.22;;;4.90;80.00;;;;;;4782735;29;20451;-92
2023/11/18 00:21:36;;;;;;;13.03;5.83;;;4.90;79.60;;;;;;4788244;29;20051;-92
2023/11/18 00:24:05;;;;;;;11.73;5.43;;;4.90;79.60;;;;;;4787579;29;20502;-92
2023/11/18 00:26:32;;;;;;;13.40;5.72;;;4.90;79.70;;;;;;4809806;29;20046;-93
2023/11/18 00:29:02;;;;;;;11.13;4.88;;;4.90;79.70;;;;;;4785974;29;20050;-92
2023/11/18 00:31:29;;;;;;;12.40;5.43;;;4.80;79.60;;;;;;4784991;29;20054;-92
2023/11/18 00:33:57;;;;;;;11.90;5.73;;;4.70;79.70;;;;;;4798123;29;20067;-92
2023/11/18 00:36:24;;;;;;;12.40;5.25;;;4.80;80.00;;;;;;4799682;29;20125;-92
2023/11/18 00:38:51;;;;;;;12.52;6.20;;;4.70;79.70;;;;;;4794499;29;20051;-92
2023/11/18 00:41:18;;;;;;;11.38;5.00;;;4.70;80.20;;;;;;4786094;30;20077;-92
2023/11/18 00:43:44;;;;;;;11.05;5.45;;;4.70;80.40;;;;;;4786037;29;20051;-93
2023/11/18 00:46:12;;;;;;;13.23;5.27;;;4.70;80.10;;;;;;4780728;29;20123;-92
2023/11/18 00:48:39;;;;;;;13.35;6.20;;;4.80;80.50;;;;;;4806796;29;20054;-92
2023/11/18 00:51:07;;;;;;;11.95;5.38;;;4.70;80.50;;;;;;4791708;29;20082;-92
2023/11/18 00:53:34;;;;;;;12.80;5.07;;;4.70;80.40;;;;;;4784803;29;20046;-92
2023/11/18 00:56:02;;;;;;;13.20;5.47;;;4.70;80.60;;;;;;4801402;29;20080;-92
2023/11/18 00:58:29;;;;;;;11.27;5.10;;;4.70;80.40;;;;;;4788893;29;20050;-92
2023/11/18 01:00:56;;;;;;;12.25;5.18;;;4.60;80.30;;;;;;4799613;29;20047;-91
2023/11/18 01:03:23;;;;;;;15.35;5.20;;;4.60;80.50;;;;;;4801864;29;20073;-92
2023/11/18 01:05:50;;;;;;;10.40;4.85;;;4.60;80.40;;;;;;4797949;29;20050;-92
2023/11/18 01:08:18;;;;;;;12.70;5.82;;;4.70;80.50;;;;;;4797884;29;20520;-92
2023/11/18 01:10:45;;;;;;;10.80;5.00;;;4.80;80.50;;;;;;4795566;29;20051;-92
2023/11/18 01:13:12;;;;;;;14.25;5.22;;;4.80;80.10;;;;;;4799001;29;20051;-92
2023/11/18 01:15:39;;;;;;;11.48;4.70;;;4.80;80.20;;;;;;4789343;29;20063;-92
2023/11/18 01:18:06;;;;;;;14.48;5.28;;;4.80;80.30;;;;;;4782256;29;20039;-92
2023/11/18 01:20:34;;;;;;;12.60;5.55;;;4.80;80.20;;;;;;4782796;30;20139;-92
2023/11/18 01:23:01;;;;;;;10.63;5.03;;;4.80;80.30;;;;;;4785446;29;20050;-92
2023/11/18 01:25:29;;;;;;;10.38;4.43;;;4.90;80.30;;;;;;4799224;29;20061;-92
2023/11/18 01:27:56;;;;;;;10.10;4.40;;;4.90;79.70;;;;;;4784289;29;20047;-92
2023/11/18 01:30:23;;;;;;;11.40;4.90;;;4.80;79.70;;;;;;4787432;29;20516;-92
2023/11/18 01:32:50;;;;;;;10.70;5.03;;;4.70;80.20;;;;;;4781149;29;20047;-92
2023/11/18 01:35:19;;;;;;;10.93;4.40;;;4.70;80.50;;;;;;4787959;29;20046;-92
2023/11/18 01:37:47;;;;;;;10.70;4.40;;;4.70;80.70;;;;;;4785283;29;20050;-92
2023/11/18 01:40:16;;;;;;;10.15;4.70;;;4.70;80.50;;;;;;4780408;29;20404;-92
2023/11/18 01:42:46;;;;;;;11.52;4.50;;;4.80;80.40;;;;;;4790910;29;20065;-92
2023/11/18 01:45:14;;;;;;;10.65;4.35;;;4.90;80.40;;;;;;4786675;29;20050;-92
2023/11/18 01:47:41;;;;;;;10.60;4.43;;;4.90;80.20;;;;;;4782040;29;20047;-92
2023/11/18 01:50:12;;;;;;;12.75;4.57;;;4.90;80.00;;;;;;4779913;29;20050;-92
2023/11/18 01:52:41;;;;;;;10.02;4.43;;;4.90;79.90;;;;;;4797246;29;20608;-92
2023/11/18 01:55:13;;;;;;;9.30;4.22;;;4.90;80.00;;;;;;4778612;29;20482;-92
2023/11/18 01:57:43;;;;;;;9.35;3.95;;;4.90;79.90;;;;;;4793459;29;20070;-92
2023/11/18 02:00:12;;;;;;;13.20;3.73;;;4.70;80.00;;;;;;4791291;29;20480;-92
2023/11/18 02:02:39;;;;;;;8.05;3.53;;;4.50;80.10;;;;;;4797036;29;20039;-92
2023/11/18 02:05:07;;;;;;;8.38;3.85;;;4.50;80.90;;;;;;4795131;29;20131;-94
2023/11/18 02:07:38;;;;;;;7.97;3.88;;;4.50;81.00;;;;;;4799991;29;20544;-93
2023/11/18 02:10:08;;;;;;;8.50;4.10;;;4.40;81.00;;;;;;4778679;29;20047;-93
2023/11/18 02:13:05;;;;;;;9.00;3.80;;;4.50;81.10;;;;;;4786319;29;20054;-92
2023/11/18 02:15:37;;;;;;;10.07;3.75;;;4.50;81.00;;;;;;4804822;29;20047;-92
2023/11/18 02:18:09;;;;;;;8.48;3.78;;;4.60;81.00;;;;;;4779142;30;20047;-93
2023/11/18 02:20:38;;;;;;;8.02;3.30;;;4.70;80.80;;;;;;4779791;29;20054;-93
2023/11/18 02:23:07;;;;;;;8.27;3.60;;;4.80;80.60;;;;;;4780153;29;20063;-93
2023/11/18 02:25:39;;;;;;;9.53;3.93;;;4.90;80.10;;;;;;4796725;29;20057;-92
2023/11/18 02:28:06;;;;;;;7.68;3.58;;;4.80;80.20;;;;;;4756552;30;20059;-92
2023/11/18 02:30:34;;;;;;;8.55;4.05;;;4.70;80.50;;;;;;4774318;30;20043;-92
2023/11/18 02:33:14;;;;;;;8.27;3.90;;;4.60;81.00;;;;;;4816729;29;20573;-93
2023/11/18 02:35:59;;;;;;;9.70;4.25;;;4.70;81.10;;;;;;4792885;29;20130;-92
2023/11/18 02:38:40;;;;;;;8.70;3.97;;;4.70;81.00;;;;;;4798713;29;20046;-92
2023/11/18 02:41:11;;;;;;;8.50;4.32;;;4.60;80.70;;;;;;4779698;29;20051;-93
2023/11/18 02:43:40;;;;;;;10.20;4.03;;;4.60;81.00;;;;;;4780450;30;20074;-94
2023/11/18 02:46:09;;;;;;;8.40;3.90;;;4.70;81.10;;;;;;4768896;30;20102;-93
2023/11/18 02:48:38;;;;;;;8.50;3.60;;;4.70;80.80;;;;;;4778656;29;20055;-92
2023/11/18 02:51:07;;;;;;;8.97;4.00;;;4.70;81.10;;;;;;4785869;29;20059;-93
2023/11/18 02:53:35;;;;;;;8.82;4.10;;;4.70;80.90;;;;;;4777793;29;20146;-93
2023/11/18 02:56:04;;;;;;;8.93;4.32;;;4.80;80.80;;;;;;4774953;29;20077;-93
2023/11/18 02:58:33;;;;;;;9.32;4.30;;;4.80;80.70;;;;;;4765754;30;20097;-92
2023/11/18 03:01:00;;;;;;;9.95;4.47;;;4.80;80.70;;;;;;4780776;29;20081;-93
2023/11/18 03:03:28;;;;;;;7.63;3.77;;;4.90;80.70;;;;;;4797462;29;20053;-93
2023/11/18 03:05:55;;;;;;;8.75;4.10;;;4.90;80.30;;;;;;4777928;29;20061;-92
2023/11/18 03:08:22;;;;;;;8.18;3.83;;;4.80;80.40;;;;;;4781798;29;20566;-92
2023/11/18 03:10:52;;;;;;;8.23;3.95;;;4.80;80.60;;;;;;4780862;30;20062;-93
2023/11/18 03:13:19;;;;;;;8.45;4.10;;;4.80;80.70;;;;;;4790266;29;20082;-92
2023/11/18 03:15:48;;;;;;;8.10;3.93;;;4.80;80.80;;;;;;4792372;29;20709;-91
2023/11/18 03:18:15;;;;;;;8.20;3.72;;;4.80;80.70;;;;;;4788693;29;20106;-92
2023/11/18 03:20:43;;;;;;;8.70;3.92;;;4.80;80.50;;;;;;4778903;29;20047;-92
2023/11/18 03:23:10;;;;;;;10.25;4.05;;;4.80;80.90;;;;;;4787436;29;20050;-93
2023/11/18 03:25:37;;;;;;;10.23;3.70;;;4.90;80.30;;;;;;4788937;29;20390;-93
2023/11/18 03:28:06;;;;;;;9.80;4.47;;;4.90;80.40;;;;;;4792897;29;20145;-93
2023/11/18 03:30:36;;;;;;;9.25;4.63;;;4.90;80.60;;;;;;4788223;29;20501;-92
2023/11/18 03:33:03;;;;;;;8.48;4.07;;;4.90;80.10;;;;;;4784895;29;20081;-93
2023/11/18 03:35:31;;;;;;;9.20;4.65;;;4.90;79.90;;;;;;4782421;29;20494;-93
2023/11/18 03:37:58;;;;;;;8.43;4.15;;;4.80;80.20;;;;;;4791269;29;20084;-92
2023/11/18 03:40:25;;;;;;;8.07;3.90;;;4.80;80.50;;;;;;4779484;30;20572;-93
2023/11/18 03:42:53;;;;;;;9.38;4.00;;;4.90;80.20;;;;;;4790370;29;20147;-93
2023/11/18 03:45:21;;;;;;;8.68;3.72;;;4.80;80.00;;;;;;4778531;29;20529;-93
2023/11/18 03:47:49;;;;;;;8.57;3.92;;;4.70;80.00;;;;;;4779005;30;20079;-93
2023/11/18 03:50:17;;;;;;;7.70;3.70;;;4.60;80.30;;;;;;4794657;29;20058;-93
2023/11/18 03:52:44;;;;;;;8.30;3.80;;;4.70;80.60;;;;;;4780422;29;20426;-93
2023/11/18 03:55:11;;;;;;;10.45;3.67;;;4.70;80.50;;;;;;4781964;29;20061;-93
2023/11/18 03:57:39;;;;;;;10.05;4.60;;;4.60;80.50;;;;;;4800890;29;20078;-93
2023/11/18 04:00:07;;;;;;;7.60;3.38;;;4.60;81.10;;;;;;4803718;29;20057;-93
2023/11/18 04:02:37;;;;;;;6.75;3.03;;;4.50;81.10;;;;;;4802800;29;20050;-93
2023/11/18 04:05:05;;;;;;;8.73;2.97;;;4.40;81.50;;;;;;4793954;29;20051;-92
2023/11/18 04:07:32;;;;;;;6.72;3.08;;;4.50;81.60;;;;;;4791852;29;20054;-93
2023/11/18 04:10:00;;;;;;;6.90;2.83;;;4.50;81.50;;;;;;4792074;29;20051;-93
2023/11/18 04:12:27;;;;;;;8.65;3.70;;;4.50;81.30;;;;;;4786793;29;20101;-93
2023/11/18 04:14:54;;;;;;;8.55;3.08;;;4.40;81.50;;;;;;4774961;30;20075;-92
2023/11/18 04:17:21;;;;;;;7.67;2.97;;;4.30;81.70;;;;;;4787639;29;20058;-92
2023/11/18 04:19:49;;;;;;;7.28;2.78;;;4.20;82.00;;;;;;4785049;30;20127;-93
2023/11/18 04:22:16;;;;;;;7.47;2.67;;;4.20;82.10;;;;;;4787979;29;20401;-92
2023/11/18 04:24:45;;;;;;;6.78;3.22;;;4.10;82.00;;;;;;4784155;29;20066;-93
2023/11/18 04:27:12;;;;;;;7.20;3.28;;;4.10;82.30;;;;;;4773024;30;20518;-93
2023/11/18 04:29:40;;;;;;;7.70;3.37;;;4.10;82.30;;;;;;4772836;30;20055;-93
2023/11/18 04:32:08;;;;;;;6.38;2.83;;;4.10;81.80;;;;;;4802389;29;20058;-93
2023/11/18 04:34:36;;;;;;;8.18;3.17;;;4.20;82.30;;;;;;4776410;29;20086;-93
2023/11/18 04:37:06;;;;;;;6.57;2.63;;;4.20;81.90;;;;;;4801689;29;20456;-93
2023/11/18 04:39:34;;;;;;;7.40;2.97;;;4.20;81.70;;;;;;4781832;29;20137;-93
2023/11/18 04:42:01;;;;;;;6.47;2.97;;;4.20;81.50;;;;;;4793677;29;20522;-93
2023/11/18 04:44:31;;;;;;;8.93;3.17;;;4.20;81.80;;;;;;4788318;29;20506;-93
2023/11/18 04:46:59;;;;;;;7.10;2.97;;;4.30;81.90;;;;;;4794448;29;20416;-93
2023/11/18 04:49:26;;;;;;;7.47;2.90;;;4.40;81.80;;;;;;4797013;29;20050;-93
2023/11/18 04:51:53;;;;;;;7.57;2.97;;;4.40;81.80;;;;;;4797139;29;20073;-94
2023/11/18 04:54:21;;;;;;;8.17;3.17;;;4.40;82.00;;;;;;4807424;29;20051;-93
2023/11/18 04:56:48;;;;;;;6.20;2.60;;;4.40;82.20;;;;;;4784484;29;20125;-93
2023/11/18 04:59:15;;;;;;;6.07;2.30;;;4.40;82.10;;;;;;4792856;29;20103;-92
2023/11/18 05:01:42;;;;;;;6.55;2.30;;;4.30;81.90;;;;;;4781421;29;20534;-92
2023/11/18 05:04:09;;;;;;;6.30;2.70;;;4.20;82.10;;;;;;4776725;30;20067;-93
2023/11/18 05:06:36;;;;;;;6.77;2.40;;;4.20;82.50;;;;;;4799762;29;20050;-93
2023/11/18 05:09:07;;;;;;;5.97;2.72;;;4.10;82.50;;;;;;4807218;29;20059;-93
2023/11/18 05:11:35;;;;;;;7.53;2.60;;;4.10;82.60;;;;;;4784168;30;20082;-92
2023/11/18 05:14:06;;;;;;;5.82;2.30;;;4.10;82.60;;;;;;4783302;30;20051;-93
2023/11/18 05:16:34;;;;;;;6.50;2.33;;;4.10;82.60;;;;;;4797452;29;20050;-93
2023/11/18 05:19:01;;;;;;;6.80;2.63;;;4.10;82.90;;;;;;4796490;29;20069;-93
2023/11/18 05:21:29;;;;;;;6.47;2.78;;;4.10;82.70;;;;;;4782781;29;20541;-93
2023/11/18 05:23:57;;;;;;;6.70;3.15;;;4.00;83.00;;;;;;4793220;29;20055;-93
2023/11/18 05:26:24;;;;;;;6.40;2.83;;;4.10;83.20;;;;;;4800533;29;20082;-92
2023/11/18 05:28:51;;;;;;;8.55;3.00;;;4.10;83.30;;;;;;4787554;29;20854;-93
2023/11/18 05:31:18;;;;;;;8.40;3.43;;;4.20;83.20;;;;;;4786207;29;20506;-93
2023/11/18 05:33:51;;;;;;;8.00;3.10;;;4.10;83.60;;;;;;4788780;29;20042;-93
2023/11/18 05:36:26;;;;;;;8.13;3.08;;;4.20;83.60;;;;;;4796236;29;20502;-93
2023/11/18 05:38:54;;;;;;;8.73;3.20;;;4.20;83.60;;;;;;4795849;29;20057;-93
2023/11/18 05:41:27;;;;;;;7.28;3.25;;;4.20;83.50;;;;;;4778333;29;20055;-92
2023/11/18 05:43:57;;;;;;;5.97;2.60;;;4.10;83.70;;;;;;4786879;29;20050;-92
2023/11/18 05:46:29;;;;;;;7.95;2.90;;;4.10;83.90;;;;;;4793022;29;20050;-93
2023/11/18 05:48:57;;;;;;;7.25;3.17;;;4.10;84.40;;;;;;4792196;29;20113;-93
2023/11/18 05:51:26;;;;;;;7.43;3.15;;;4.10;84.30;;;;;;4778038;30;20047;-93
2023/11/18 05:53:56;;;;;;;6.53;2.92;;;4.10;84.20;;;;;;4782966;29;20054;-93
2023/11/18 05:56:24;;;;;;;7.17;2.90;;;4.20;84.20;;;;;;4776699;30;20142;-93
2023/11/18 05:58:55;;;;;;;6.63;2.65;;;4.20;84.20;;;;;;4795188;29;20054;-92
2023/11/18 06:01:22;;;;;;;6.97;2.88;;;4.10;84.00;;;;;;4792437;29;20096;-93
2023/11/18 06:03:51;;;;;;;7.38;2.25;;;;;;;;;;4777844;29;20132;-93
2023/11/18 06:06:21;;;;;;;6.55;2.67;;;4.10;84.10;;;;;;4792928;29;20077;-92
2023/11/18 06:08:51;;;;;;;7.73;1.97;;;4.10;84.10;;;;;;4778476;29;20055;-93
2023/11/18 06:11:19;;;;;;;6.75;3.05;;;4.10;83.60;;;;;;4790538;29;20156;-93
2023/11/18 06:13:49;;;;;;;8.25;3.17;;;4.00;83.90;;;;;;4784850;30;20100;-93
2023/11/18 06:16:26;;;;;;;7.13;2.78;;;4.00;83.90;;;;;;4775032;30;20052;-93
2023/11/18 06:18:56;;;;;;;7.07;3.20;;;4.00;84.30;;;;;;4777802;29;20138;-92
2023/11/18 06:21:28;;;;;;;7.80;3.03;;;;;;;;;;4777118;30;20487;-93
2023/11/18 06:23:55;;;;;;;7.53;3.05;;;;;;;;;;4774991;30;20051;-93
2023/11/18 06:26:26;;;;;;;7.88;3.33;;;;;;;;;;4774691;30;20062;-92
2023/11/18 06:28:54;;;;;;;8.32;2.80;;;;;;;;;;4774305;30;20533;-93
2023/11/18 06:31:23;;;;;;;8.05;3.65;;;;;;;;;;4786108;29;20062;-93
2023/11/18 06:33:52;;;;;;;7.50;2.60;;;;;;;;;;4788617;29;20422;-93
2023/11/18 06:36:21;;;;;;;7.97;3.35;;;;;;;;;;4805116;29;20039;-92
2023/11/18 06:38:50;;;;;;;8.18;3.25;;;;;;;;;;4791906;29;20055;-93
2023/11/18 06:41:25;;;;;;;7.15;3.38;;;;;;;;;;4780045;29;20490;-93
2023/11/18 06:46:25;;;;;;;7.83;3.20;;;4.40;83.20;;;;;;4813196;29;20073;-93
2023/11/18 06:49:03;;;;;;;6.43;2.85;;;4.00;84.00;;;;;;4776905;30;20065;-93
2023/11/18 06:51:34;;;;;;;8.27;3.80;;;4.00;84.30;;;;;;4784460;29;20065;-92
2023/11/18 06:54:08;;;;;;;8.38;3.65;;;4.00;84.90;;;;;;4793023;29;20054;-93
2023/11/18 06:56:39;;;;;;;8.02;3.35;;;3.90;84.70;;;;;;4793912;29;20050;-93
2023/11/18 06:59:12;;;;;;;7.13;2.63;;;3.90;84.60;;;;;;4775882;30;20043;-93
2023/11/18 07:01:42;;;;;;;9.88;4.38;;;3.90;84.60;;;;;;4774186;29;20481;-92
2023/11/18 07:04:10;;;;;;;9.82;3.90;;;3.90;84.80;;;;;;4778298;30;20065;-93
2023/11/18 07:06:39;;;;;;;7.93;3.63;;;4.00;84.90;;;;;;4788788;30;20055;-93
2023/11/18 07:09:16;;;;;;;9.75;4.13;;;4.00;84.80;;;;;;4788548;29;20055;-93
2023/11/18 07:11:46;;;;;;;8.47;3.93;;;3.90;85.10;;;;;;4775440;29;20514;-93
2023/11/18 07:14:17;;;;;;;9.48;3.83;;;4.10;85.00;;;;;;4782456;29;20582;-90
2023/11/18 07:16:45;;;;;;;8.55;3.92;;;4.10;84.40;;;;;;4798589;29;20043;-92
2023/11/18 07:19:19;;;;;;;8.18;3.95;;;4.20;84.50;;;;;;4784762;29;20042;-93
2023/11/18 07:21:49;;;;;;;7.63;3.50;;;4.10;84.00;;;;;;4780813;29;20046;-93
2023/11/18 07:24:20;;;;;;;5.60;2.03;;;4.10;84.10;;;;;;4801274;29;20532;-92
2023/11/18 07:26:48;;;;;;;7.35;2.83;;;4.10;84.00;;;;;;4787685;30;20059;-92
2023/11/18 07:29:16;;;;;;;9.52;4.15;;;4.00;84.20;;;;;;4795260;29;20042;-91
2023/11/18 07:31:45;;;;;;;9.85;4.45;;;4.00;84.70;;;;;;4787771;29;20502;-92
2023/11/18 07:34:12;;;;;;;9.45;4.10;;;4.00;85.00;;;;;;4780266;29;20046;-93
2023/11/18 07:36:39;;;;;;;9.83;3.83;;;4.00;84.80;;;;;;4808193;29;20050;-92
2023/11/18 07:39:15;;;;;;;7.63;3.20;;;4.10;84.80;;;;;;4794445;29;20046;-93
2023/11/18 07:41:44;;;;;;;6.90;2.70;;;4.20;84.70;;;;;;4790423;29;20046;-92
2023/11/18 07:44:12;;;;;;;7.90;3.20;;;4.10;83.80;;;;;;4774265;29;20054;-92
2023/11/18 07:46:42;;;;;;;5.97;2.22;;;4.00;84.10;;;;;;4805056;29;20387;-92
2023/11/18 07:49:10;;;;;;;7.07;2.43;;;4.00;83.90;;;;;;4789499;29;20054;-93
2023/11/18 07:51:40;;;;;;;6.93;2.92;;;3.90;84.00;;;;;;4793778;29;20133;-92
2023/11/18 07:54:09;;;;;;;6.95;2.80;;;3.90;84.30;;;;;;4794332;29;20055;-93
2023/11/18 07:56:37;;;;;;;7.03;2.78;;;4.00;84.30;;;;;;4773341;30;20051;-92
2023/11/18 07:59:04;;;;;;;6.65;2.55;;;4.00;84.00;;;;;;4781166;29;20050;-93
2023/11/18 08:01:33;;;;;;;7.60;2.73;;;4.00;83.60;;;;;;4792636;29;20464;-93
2023/11/18 08:04:00;;;;;;;8.00;3.28;;;4.00;83.80;;;;;;4775933;29;20154;-92
2023/11/18 08:06:27;;;;;;;7.57;2.97;;;4.00;83.90;;;;;;4798515;29;20066;-92
2023/11/18 08:08:54;;;;;;;7.35;2.95;;;4.00;83.50;;;;;;4800854;29;20100;-92
2023/11/18 08:11:21;;;;;;;8.63;3.90;;;4.00;83.40;;;;;;4801733;29;20074;-92
2023/11/18 08:13:48;;;;;;;14.13;4.63;;;3.90;83.70;;;;;;4795636;29;20105;-92
2023/11/18 08:16:15;;;;;;;9.77;4.25;;;4.00;84.10;;;;;;4793963;29;20417;-92
2023/11/18 08:18:43;;;;;;;9.35;4.25;;;4.00;83.70;;;;;;4779683;29;20070;-93
2023/11/18 08:21:12;;;;;;;9.95;3.95;;;4.00;83.40;;;;;;4782080;29;20051;-93
2023/11/18 08:23:39;;;;;;;11.88;5.32;;;4.00;83.40;;;;;;4777138;30;20051;-93
2023/11/18 08:26:07;;;;;;;14.47;6.03;;;3.80;83.50;;;;;;4795981;29;21032;-93
2023/11/18 08:28:35;;;;;;;15.57;6.70;;;3.70;84.00;;;;;;4809138;29;20050;-93
2023/11/18 08:31:02;;;;;;;14.75;6.68;;;3.70;84.00;;;;;;4779502;29;20061;-92
2023/11/18 08:33:30;;;;;;;20.05;10.70;;;3.80;84.00;;;;;;4779696;29;20104;-93
2023/11/18 08:35:57;;;;;;;19.20;8.00;;;3.90;84.10;;;;;;4786466;29;20158;-92
2023/11/18 08:38:24;;;;;;;17.63;8.07;;;4.00;83.80;;;;;;4796623;29;20046;-92
2023/11/18 08:40:52;;;;;;;16.63;7.68;;;4.00;83.80;;;;;;4806363;29;20047;-92
2023/11/18 08:43:20;;;;;;;19.38;7.82;;;4.20;83.40;;;;;;4788736;29;20078;-92
2023/11/18 08:45:50;;;;;;;18.67;8.30;;;4.10;82.70;;;;;;4799984;29;20076;-93
2023/11/18 08:48:18;;;;;;;19.15;9.23;;;4.10;82.80;;;;;;4785089;29;20133;-92
2023/11/18 08:50:46;;;;;;;17.03;7.73;;;4.20;83.10;;;;;;4780019;30;20108;-92
2023/11/18 08:53:17;;;;;;;15.80;7.07;;;4.20;82.80;;;;;;4794090;29;20053;-92
2023/11/18 08:55:53;;;;;;;15.30;6.28;;;4.30;82.70;;;;;;4799661;29;20051;-93
2023/11/18 08:58:33;;;;;;;19.85;8.65;;;4.20;82.50;;;;;;4791700;29;20065;-92
2023/11/18 09:01:13;;;;;;;17.38;8.43;;;4.10;82.40;;;;;;4794202;29;20108;-92
2023/11/18 09:03:52;;;;;;;22.20;9.17;;;4.20;82.80;;;;;;4776499;30;20143;-93
2023/11/18 09:06:27;;;;;;;15.20;7.00;;;4.30;82.80;;;;;;4775476;30;20055;-92
2023/11/18 09:08:57;;;;;;;16.42;7.72;;;4.40;82.60;;;;;;4779735;30;20059;-92
2023/11/18 09:11:32;;;;;;;19.33;8.75;;;4.40;82.00;;;;;;4797518;29;20105;-92
2023/11/18 09:14:03;;;;;;;15.73;7.75;;;4.40;81.90;;;;;;4788335;29;20562;-92
2023/11/18 09:16:33;;;;;;;13.00;6.27;;;4.30;82.50;;;;;;4780931;29;20051;-92
2023/11/18 09:19:02;;;;;;;14.18;6.15;;;4.20;82.40;;;;;;4782019;29;20051;-92
2023/11/18 09:21:32;;;;;;;11.85;5.82;;;4.20;82.40;;;;;;4790846;29;20046;-92
2023/11/18 09:23:59;;;;;;;13.13;5.88;;;4.20;82.50;;;;;;4781352;30;20135;-92
2023/11/18 09:26:29;;;;;;;12.00;5.95;;;4.30;82.60;;;;;;4809301;29;20046;-92
2023/11/18 09:28:58;;;;;;;15.67;6.90;;;4.40;82.60;;;;;;4785336;29;20081;-92
2023/11/18 09:31:25;;;;;;;19.17;8.57;;;4.50;82.70;;;;;;4784982;29;20043;-93
2023/11/18 09:33:52;;;;;;;16.88;7.50;;;4.50;82.20;;;;;;4788924;29;20058;-92
2023/11/18 09:36:22;;;;;;;14.85;7.22;;;4.50;82.30;;;;;;4794999;29;20047;-94
2023/11/18 09:38:50;;;;;;;15.13;7.75;;;4.50;82.30;;;;;;4792773;29;20148;-93
2023/11/18 09:41:17;;;;;;;18.00;8.77;;;4.50;81.90;;;;;;4780228;30;20058;-92
2023/11/18 09:43:46;;;;;;;14.32;6.30;;;4.50;82.10;;;;;;4771202;29;20569;-93
2023/11/18 09:46:16;;;;;;;17.58;8.20;;;4.50;82.20;;;;;;4778470;30;20071;-93
2023/11/18 09:48:52;;;;;;;18.60;8.65;;;4.40;82.40;;;;;;4775116;30;20055;-94
2023/11/18 09:51:22;;;;;;;16.98;9.07;;;4.50;82.60;;;;;;4775057;30;20094;-94
2023/11/18 09:53:52;;;;;;;18.37;8.20;;;4.40;82.30;;;;;;4789712;30;20063;-94
2023/11/18 09:56:43;;;;;;;16.80;8.05;;;4.40;82.20;;;;;;4760022;30;20063;-93
2023/11/18 09:59:16;;;;;;;16.17;7.90;;;4.40;82.30;;;;;;4775076;30;20063;-94
2023/11/18 10:01:44;;;;;;;17.23;7.95;;;4.40;82.10;;;;;;4789711;30;20055;-93
2023/11/18 10:04:13;;;;;;;17.13;8.50;;;4.40;82.10;;;;;;4789437;30;20127;-93
2023/11/18 10:06:44;;;;;;;18.20;7.77;;;4.40;82.20;;;;;;4789463;30;20051;-94
2023/11/18 10:09:19;;;;;;;18.48;8.75;;;4.30;81.60;;;;;;4774372;30;20541;-93
2023/11/18 10:11:49;;;;;;;20.20;9.18;;;4.10;81.50;;;;;;4789431;30;20097;-93
2023/11/18 10:14:16;;;;;;;20.10;9.73;;;3.90;81.60;;;;;;4776342;29;20456;-93
2023/11/18 10:16:47;;;;;;;26.70;13.60;;;4.00;82.40;;;;;;4795448;29;20103;-93
2023/11/18 10:19:17;;;;;;;28.27;12.83;;;4.00;82.50;;;;;;4795319;29;20046;-93
2023/11/18 10:21:48;;;;;;;19.27;8.82;;;4.00;82.90;;;;;;4787055;30;20568;-93
2023/11/18 10:24:19;;;;;;;17.30;8.25;;;4.10;82.50;;;;;;4786717;29;20107;-93
2023/11/18 10:26:56;;;;;;;18.40;7.15;;;4.10;82.20;;;;;;4807460;29;20049;-92
2023/11/18 10:29:27;;;;;;;27.20;12.32;;;4.10;82.40;;;;;;4791984;29;20086;-91
2023/11/18 10:32:07;;;;;;;20.30;9.47;;;4.10;82.10;;;;;;4797487;29;20585;-91
2023/11/18 10:34:36;;;;;;;17.77;7.88;;;4.10;82.00;;;;;;4780353;29;20062;-92
2023/11/18 10:37:03;;;;;;;27.00;12.20;;;4.20;81.80;;;;;;4773926;29;20042;-92
2023/11/18 10:39:32;;;;;;;22.00;9.73;;;4.20;82.00;;;;;;4799111;29;20405;-91
2023/11/18 10:42:02;;;;;;;21.42;9.35;;;4.20;81.60;;;;;;4794537;29;20133;-91
2023/11/18 10:44:29;;;;;;;22.87;10.43;;;4.20;81.70;;;;;;4785011;29;20043;-91
2023/11/18 10:46:59;;;;;;;19.90;8.40;;;4.00;82.20;;;;;;4785354;29;20128;-89
2023/11/18 10:49:28;;;;;;;18.75;8.63;;;4.10;82.30;;;;;;4785583;29;20047;-93
2023/11/18 10:51:56;;;;;;;21.02;9.55;;;4.20;82.40;;;;;;4797183;29;20051;-90
2023/11/18 10:54:26;;;;;;;19.05;9.25;;;4.30;82.50;;;;;;4781662;29;20042;-90
2023/11/18 10:56:56;;;;;;;20.90;10.07;;;4.30;82.00;;;;;;4779334;29;20056;-90
2023/11/18 10:59:25;;;;;;;21.95;9.15;;;4.20;81.80;;;;;;4801460;29;20051;-91
2023/11/18 11:01:52;;;;;;;21.85;10.05;;;4.30;81.90;;;;;;4781305;29;20050;-90
2023/11/18 11:04:22;;;;;;;20.33;8.85;;;4.20;82.00;;;;;;4799964;29;20451;-89
2023/11/18 11:06:53;;;;;;;19.38;9.27;;;4.30;82.10;;;;;;4784407;29;20541;-90
2023/11/18 11:09:27;;;;;;;19.60;8.77;;;4.20;82.30;;;;;;4786549;29;20050;-90
2023/11/18 11:12:03;;;;;;;27.40;12.32;;;4.00;82.00;;;;;;4800788;29;20062;-91
2023/11/18 11:14:37;;;;;;;24.42;11.18;;;4.00;81.90;;;;;;4793662;29;20526;-90
2023/11/18 11:17:13;;;;;;;17.85;8.27;;;3.80;81.90;;;;;;4801209;29;20054;-92
2023/11/18 11:19:55;;;;;;;23.70;9.68;;;3.60;81.80;;;;;;4776859;29;20054;-89
2023/11/18 11:22:30;;;;;;;19.83;8.77;;;3.50;82.40;;;;;;4795795;29;20089;-91
2023/11/18 11:25:00;;;;;;;20.13;9.18;;;3.50;82.60;;;;;;4787162;29;20045;-92
2023/11/18 11:27:39;;;;;;;21.98;9.98;;;3.60;82.70;;;;;;4800966;29;20058;-91
2023/11/18 11:30:20;;;;;;;20.90;9.20;;;3.80;82.50;;;;;;4800029;29;20061;-92
2023/11/18 11:32:53;;;;;;;21.15;9.93;;;3.80;82.30;;;;;;4779433;29;20506;-91
2023/11/18 11:35:24;;;;;;;21.00;10.40;;;3.80;82.30;;;;;;4780175;30;20514;-90
2023/11/18 11:37:54;;;;;;;22.88;10.43;;;3.80;82.60;;;;;;4774186;29;20392;-90
2023/11/18 11:40:22;;;;;;;24.10;10.90;;;3.80;82.80;;;;;;4780067;29;20050;-90
2023/11/18 11:42:54;;;;;;;24.25;11.18;;;3.70;83.30;;;;;;4787946;29;20100;-90
2023/11/18 11:45:28;;;;;;;25.35;10.30;;;3.70;83.70;;;;;;4779514;29;20238;-90
2023/11/18 11:48:12;;;;;;;18.90;8.77;;;3.60;83.80;;;;;;4782191;29;20050;-90
2023/11/18 11:51:01;;;;;;;22.92;10.80;;;3.40;84.00;;;;;;4784422;29;20526;-91
2023/11/18 11:53:35;;;;;;;20.55;8.88;;;3.50;84.60;;;;;;4780181;29;20054;-90
2023/11/18 11:56:06;;;;;;;22.25;9.20;;;3.60;84.40;;;;;;4798180;29;20538;-90
2023/11/18 11:58:38;;;;;;;18.95;8.55;;;3.80;84.20;;;;;;4787831;29;20051;-90
2023/11/18 12:01:33;;;;;;;18.70;8.77;;;3.70;83.90;;;;;;4781372;30;20070;-90
2023/11/18 12:04:20;;;;;;;19.58;8.77;;;3.70;84.00;;;;;;4799930;29;20061;-90
2023/11/18 12:06:53;;;;;;;22.02;10.32;;;3.80;84.10;;;;;;4800694;29;20137;-90
2023/11/18 12:09:32;;;;;;;26.35;11.70;;;3.80;84.00;;;;;;4787503;29;20050;-90
2023/11/18 12:12:02;;;;;;;21.55;10.57;;;3.90;83.90;;;;;;4802941;29;20290;-90
2023/11/18 12:17:00;;;;;;;24.52;9.98;;;3.90;83.70;;;;;;4802665;29;20058;-88
2023/11/18 12:19:37;;;;;;;23.25;11.35;;;3.80;83.60;;;;;;4779683;29;20379;-90
2023/11/18 12:22:12;;;;;;;24.15;9.25;;;3.80;83.70;;;;;;4795007;29;20051;-90
2023/11/18 12:24:40;;;;;;;17.30;7.53;;;3.70;83.40;;;;;;4787490;29;20104;-90
2023/11/18 12:27:12;;;;;;;20.20;9.33;;;3.70;83.50;;;;;;4803622;29;20050;-90
2023/11/18 12:29:45;;;;;;;18.25;9.00;;;3.70;83.30;;;;;;4797156;29;20062;-90
2023/11/18 12:32:51;;;;;;;20.27;9.38;;;3.70;83.60;;;;;;4807247;29;20047;-91
2023/11/18 12:35:19;;;;;;;19.88;8.68;;;3.70;83.30;;;;;;4783237;29;20112;-90
2023/11/18 12:38:12;;;;;;;19.20;9.13;;;3.80;83.20;;;;;;4787830;29;20518;-90
2023/11/18 12:40:55;;;;;;;20.60;9.03;;;3.70;82.90;;;;;;4781800;29;20424;-90
2023/11/18 12:43:49;;;;;;;22.67;10.38;;;3.70;83.20;;;;;;4799088;29;20383;-90
2023/11/18 12:46:27;;;;;;;26.00;11.63;;;3.60;83.30;;;;;;4787727;29;20475;-90
2023/11/18 12:48:59;;;;;;;19.77;9.57;;;3.70;83.50;;;;;;4784273;29;20066;-90
2023/11/18 12:51:27;;;;;;;22.15;10.25;;;3.70;83.60;;;;;;4799224;29;20058;-90
2023/11/18 12:53:54;;;;;;;22.07;10.10;;;3.70;83.50;;;;;;4799389;29;20509;-90
2023/11/18 12:56:23;;;;;;;18.92;9.20;;;3.70;83.80;;;;;;4788627;29;20054;-90
2023/11/18 12:58:50;;;;;;;20.33;9.65;;;3.70;83.80;;;;;;4802422;29;20042;-90
2023/11/18 13:01:19;;;;;;;19.15;9.45;;;3.70;82.80;;;;;;4791371;29;20047;-90
2023/11/18 13:03:46;;;;;;;19.88;10.80;;;3.70;83.00;;;;;;4791392;29;20112;-90
2023/11/18 13:06:14;;;;;;;21.17;11.60;;;3.70;83.40;;;;;;4791203;29;20471;-91
2023/11/18 13:08:41;;;;;;;22.30;11.77;;;3.80;83.30;;;;;;4785299;29;20061;-90
2023/11/18 13:11:18;;;;;;;18.27;9.88;;;3.90;83.40;;;;;;4775241;29;20058;-90
2023/11/18 13:13:46;;;;;;;16.13;8.48;;;3.90;82.50;;;;;;4782855;29;20112;-90